Anguilla, MS

1:30 AM CDT on July 29, 2015 (GMT -0500)
Mid Delta Regional | | Change Station
CLOSE
Current Station
Airport
Location: Greenville,
Elevation: 131 ft
Nearby Weather Stations
Active Advisory: Excessive Heat Warning

Elev 131 ft 33.48 °N, 90.99 °W | Updated 37 minutes ago

Clear
Clear
82 °F
Feels Like 91 °F
N
4
Wind Variable Wind from South

Today
High -- | Low -- °F
--% Chance of Precip.
Yesterday
High -- | Low -- °F
Precip. -- in
6:14 AM 8:04 PM
Waxing Gibbous, 94% visible
Pressure 29.99 in
Visibility 10.0 miles
Clouds Clear
Heat Index 91 °F
Dew Point 78 °F
Humidity 88%
Rainfall 0.00 in
Snow Depth Not available.
UV 0 out of 12
Pollen 3.70 out of 12
Air Quality Not available.
Flu Activity Not available.
METAR KGLH 290553Z AUTO 17003KT 10SM CLR 28/26 A2998 RMK AO2 SLP156 T02780256 10344 20272 403610250 50009

More Conditions Fewer Conditions

Pressure 29.99 in
Visibility 10.0 miles
Clouds Clear
Heat Index 91 °F
Dew Point 78 °F
Humidity 88%
Rainfall 0.00 in
Snow Depth Not available.
UV 0 out of 12
Pollen 3.70 out of 12
Air Quality Not available.
Flu Activity Not available.
METAR KGLH 290553Z AUTO 17003KT 10SM CLR 28/26 A2998 RMK AO2 SLP156 T02780256 10344 20272 403610250 50009

More Conditions Fewer Conditions

10-Day Weather Forecast

×

Almanac

Astronomy

Jul. 29, 2015 Rise Set
Actual Time
Civil Twilight
Nautical Twilight
Astronomical Twilight
Moon
Length of Visible Light
Length of Day
Tomorrow will be .
, % of the Moon is Illuminated

Today's Extremes

State Highs State Lows

Community

WunderPhotos

Upload Photos

1,842,061 photos uploaded!

WunderBlogs® & News

Nearby

Air Quality

  Air Quality AQ Index Pollutant
Not available.

Snow Depth

Station Depth Elevation

Earthquake Activity

City Distance Mag. Time & Date
Minimum magnitude displayed is 2.5.

Coastal Water Temperatures

Place Temperature

Stations

Nearby Weather Stations

Station Location Temp. Windchill Dew Point Humidity Wind Precip. Elev Updated Type
                   
Excessive Heat Warning
Statement as of 8:58 PM CDT on July 28, 2015

... Excessive heat warning remains in effect until 7 PM CDT
Wednesday...

* temperatures... peaking from 97 to 100 degrees.

* Heat indices... peaking from 111 to 114 degrees.

* Impacts... increased risk of heat related illnesses including
heat exhaustion and heat stroke.

Precautionary/preparedness actions...

Take extra precautions... if you work or spend time outside. When
possible... reschedule strenuous activities to early morning or
evening. Know the signs and symptoms of heat exhaustion and heat
stroke. Wear light weight and loose fitting clothing when
possible and drink plenty of water. Heat stroke is an emergency...
call 9 1 1.

Young children and pets should never be left unattended in
vehicles under any circumstances. This is especially true during
warm or hot weather when car interiors can reach lethal
temperatures in a matter of minutes.